Time;durP1;ratioP1;P1;durP2;ratioP2;P2;SDS_P1;SDS_P2;PMS_P1;PMS_P2;Temp;Humidity;BMP_temperature;BMP_pressure;BME280_temperature;BME280_humidity;BME280_pressure;Samples;Min_cycle;Max_cycle;Signal;HPM_P1;HPM_P2
2022/06/06 00:01:12;;;;;;;3.90;3.60;;;21.40;74.20;;;23.58;55.43;100822.94;5172672;27;20634;-61
2022/06/06 00:03:40;;;;;;;3.77;3.47;;;21.40;74.30;;;23.63;55.10;100812.19;5131916;27;20227;-61
2022/06/06 00:06:15;;;;;;;3.67;3.47;;;21.40;74.00;;;23.63;54.96;100819.47;5119228;27;20217;-61
2022/06/06 00:08:42;;;;;;;4.17;3.70;;;21.30;73.80;;;23.61;54.92;100822.41;5123316;28;20219;-60
2022/06/06 00:11:10;;;;;;;3.90;3.70;;;21.30;73.90;;;23.64;54.83;100818.38;5113646;28;20226;-60
2022/06/06 00:13:39;;;;;;;4.13;3.73;;;21.30;73.70;;;23.56;54.82;100819.66;5084803;28;20242;-60
2022/06/06 00:16:08;;;;;;;4.10;3.80;;;21.30;73.60;;;23.51;54.91;100817.75;5014041;28;20677;-59
2022/06/06 00:19:05;;;;;;;4.87;4.47;;;21.30;74.30;;;23.43;55.25;100820.13;5012491;28;20256;-61
2022/06/06 00:21:46;;;;;;;6.30;5.70;;;21.30;73.80;;;23.41;54.99;100823.06;5171722;27;20629;-59
2022/06/06 00:24:14;;;;;;;4.83;4.43;;;21.20;73.40;;;23.38;55.10;100818.22;5131776;27;20195;-60
2022/06/06 00:26:42;;;;;;;5.47;4.97;;;21.20;73.50;;;23.36;55.11;100814.16;5115086;28;20197;-60
2022/06/06 00:29:13;;;;;;;4.83;4.40;;;21.10;73.50;;;23.33;55.32;100809.25;5129217;28;20213;-60
2022/06/06 00:37:16;;;;;;;4.73;4.43;;;21.00;75.40;;;22.76;58.22;100801.75;4982280;28;20526;-60
2022/06/06 00:40:59;;;;;;;5.07;4.67;;;20.90;76.40;;;22.55;58.87;100799.91;4840297;29;20309;-60
2022/06/06 00:46:05;;;;;;;5.03;4.70;;;20.80;77.00;;;22.45;60.03;100794.41;5155575;27;20650;-59
2022/06/06 00:48:40;;;;;;;4.40;4.10;;;20.60;78.60;;;22.44;60.05;100794.66;5095653;28;20192;-59
2022/06/06 00:51:11;;;;;;;4.13;3.83;;;20.50;79.20;;;22.42;60.65;100800.28;5067837;28;20219;-62
2022/06/06 00:53:44;;;;;;;4.57;3.77;;;20.50;79.80;;;22.42;60.77;100808.31;5077523;28;20196;-60
2022/06/06 00:56:21;;;;;;;3.70;3.50;;;20.40;80.40;;;22.32;61.56;100797.50;5096175;28;20541;-58
2022/06/06 00:58:53;;;;;;;3.47;3.23;;;20.30;81.80;;;22.26;61.42;100795.78;5055092;28;20193;-60
2022/06/06 01:01:22;;;;;;;3.60;3.30;;;20.20;81.20;;;22.23;62.13;100807.00;4956872;28;20719;-60
2022/06/06 01:07:14;;;;;;;3.07;2.87;;;20.20;81.70;;;22.34;61.35;100798.03;5171708;27;20634;-60
2022/06/06 01:09:43;;;;;;;2.67;2.47;;;20.20;81.60;;;22.32;61.50;100808.22;5148840;27;20198;-60
2022/06/06 01:12:16;;;;;;;2.40;2.30;;;20.10;81.70;;;22.25;61.26;100796.84;5150681;27;20198;-60
2022/06/06 01:14:50;;;;;;;1.97;1.87;;;20.10;81.70;;;22.19;61.28;100797.84;5091233;28;20211;-61
2022/06/06 01:17:34;;;;;;;1.80;1.70;;;20.10;81.40;;;22.17;61.21;100805.34;5042355;28;20203;-60
2022/06/06 01:20:37;;;;;;;1.63;1.53;;;20.00;81.20;;;22.18;60.86;100801.56;4898421;28;20204;-60
2022/06/06 01:23:41;;;;;;;2.23;2.13;;;20.10;81.00;;;22.15;60.72;100802.09;4750355;30;20527;-60
2022/06/06 01:26:32;;;;;;;2.10;2.00;;;20.00;80.80;;;22.30;60.25;100804.16;4580928;31;20242;-60
2022/06/06 01:28:58;;;;;;;2.27;2.17;;;20.10;80.70;;;22.31;60.08;100793.16;4435441;32;20231;-60
2022/06/06 01:31:44;;;;;;;3.37;3.13;;;20.10;80.80;;;22.27;60.15;100800.91;5176265;27;20400;-59
2022/06/06 01:34:20;;;;;;;3.07;2.87;;;20.10;80.70;;;22.29;60.36;100797.97;5133281;27;20587;-58
2022/06/06 01:36:50;;;;;;;3.47;3.27;;;20.10;80.40;;;22.23;60.05;100815.06;5128968;28;20506;-57
2022/06/06 01:39:19;;;;;;;4.00;3.70;;;20.10;80.30;;;22.19;60.51;100804.03;5123579;28;20624;-59
2022/06/06 01:42:01;;;;;;;4.70;4.40;;;20.00;80.00;;;22.11;60.40;100817.84;5087098;28;20267;-60
2022/06/06 01:44:39;;;;;;;4.97;4.57;;;20.00;80.00;;;22.07;60.50;100823.97;5002984;28;20275;-58
2022/06/06 01:47:14;;;;;;;5.10;4.80;;;20.00;80.20;;;22.10;60.43;100821.63;4927878;29;20286;-59
2022/06/06 01:49:40;;;;;;;4.83;4.43;;;20.00;80.00;;;22.08;60.25;100817.56;4814172;29;20233;-60
2022/06/06 01:54:45;;;;;;;4.73;4.43;;;20.00;79.90;;;22.31;59.27;100828.03;5167729;27;20646;-59
2022/06/06 01:57:16;;;;;;;4.70;4.30;;;20.00;79.80;;;22.37;59.05;100843.13;5130635;28;20195;-60
2022/06/06 01:59:44;;;;;;;3.93;3.53;;;20.00;79.60;;;22.46;58.80;100836.28;5090354;28;20322;-61
2022/06/06 02:02:12;;;;;;;4.10;3.80;;;20.00;79.30;;;22.50;58.51;100837.41;5113990;28;20195;-58
2022/06/06 02:04:39;;;;;;;4.70;3.43;;;20.10;79.40;;;22.56;58.59;100839.06;5110409;28;20744;-59
2022/06/06 02:07:06;;;;;;;4.60;4.20;;;20.10;79.10;;;22.54;58.22;100838.50;5080591;28;20196;-59
2022/06/06 02:09:33;;;;;;;5.23;4.83;;;20.10;79.00;;;22.52;58.63;100848.69;5102871;28;20291;-59
2022/06/06 02:11:59;;;;;;;4.33;3.93;;;20.20;79.00;;;22.60;58.33;100866.22;4946875;28;20199;-60
2022/06/06 02:17:03;;;;;;;4.70;4.30;;;20.20;78.70;;;22.71;57.84;100868.81;5172063;27;20637;-58
2022/06/06 02:19:30;;;;;;;4.73;4.33;;;20.20;78.60;;;22.67;57.75;100867.69;5150809;27;20281;-58
2022/06/06 02:21:57;;;;;;;4.37;4.07;;;20.20;78.60;;;22.69;57.83;100876.31;5148814;27;20198;-57
2022/06/06 02:24:24;;;;;;;4.40;4.10;;;20.20;78.20;;;22.72;57.60;100878.50;5147646;27;20552;-58
2022/06/06 02:26:51;;;;;;;4.17;3.87;;;20.10;78.20;;;22.73;57.74;100880.09;5117956;28;20596;-58
2022/06/06 02:29:17;;;;;;;5.20;4.70;;;20.20;78.20;;;22.76;57.72;100884.97;5098191;28;20200;-61
2022/06/06 02:31:44;;;;;;;4.87;4.40;;;20.20;78.30;;;22.77;57.52;100875.84;5091216;28;20271;-60
2022/06/06 02:34:12;;;;;;;5.63;5.07;;;20.20;78.40;;;22.69;57.70;100881.69;5082577;28;22147;-60
2022/06/06 02:36:38;;;;;;;4.70;4.40;;;20.20;78.40;;;22.68;57.52;100887.28;5072809;28;20270;-60
2022/06/06 02:41:44;;;;;;;4.00;3.70;;;20.20;77.90;;;22.56;57.74;100890.06;5171812;27;20633;-58
2022/06/06 02:44:11;;;;;;;4.00;3.70;;;20.10;77.70;;;22.61;57.70;100892.84;5150454;27;20281;-59
2022/06/06 02:46:37;;;;;;;3.50;3.20;;;20.10;77.60;;;22.67;57.03;100904.47;5113602;27;20218;-58
2022/06/06 02:49:04;;;;;;;3.77;3.47;;;20.20;77.60;;;22.61;56.75;100906.25;5147493;27;20187;-59
2022/06/06 02:51:31;;;;;;;3.67;3.47;;;20.20;77.40;;;22.65;56.80;100904.72;5128098;27;20207;-59
2022/06/06 02:54:00;;;;;;;3.90;3.60;;;20.10;77.30;;;22.48;57.15;100903.91;5090554;28;20235;-57
2022/06/06 02:56:27;;;;;;;4.10;3.80;;;20.10;77.30;;;22.49;57.03;100910.91;5005333;28;20283;-59
2022/06/06 02:59:04;;;;;;;4.20;3.90;;;20.10;77.10;;;22.47;57.08;100918.38;5012898;28;20191;-58
2022/06/06 03:01:30;;;;;;;5.27;4.33;;;20.10;77.10;;;22.33;57.34;100919.81;4979477;28;20303;-58
2022/06/06 03:06:54;;;;;;;4.30;3.90;;;20.00;77.00;;;22.43;57.08;100922.63;5151333;27;21174;-61
2022/06/06 03:09:37;;;;;;;4.73;4.33;;;20.10;77.10;;;22.37;57.31;100922.81;5112254;28;20203;-59
2022/06/06 03:12:21;;;;;;;4.70;3.80;;;20.00;76.90;;;22.44;56.80;100923.44;5056497;28;20201;-60
2022/06/06 03:15:20;;;;;;;4.17;3.87;;;20.00;76.70;;;22.40;56.69;100924.97;5030842;28;20237;-61
2022/06/06 03:21:18;;;;;;;4.27;3.97;;;20.00;76.40;;;22.18;56.99;100925.75;4866440;29;20198;-60
2022/06/06 03:24:13;;;;;;;4.03;3.73;;;19.90;76.20;;;22.25;56.46;100925.59;4838507;29;20802;-60
2022/06/06 03:26:53;;;;;;;5.23;4.73;;;19.90;76.00;;;22.32;56.45;100942.34;4647319;30;20658;-61
2022/06/06 03:32:09;;;;;;;6.17;5.13;;;19.90;75.80;;;22.23;56.36;100930.38;5170525;27;20633;-59
2022/06/06 03:34:47;;;;;;;6.37;5.87;;;19.90;75.80;;;22.30;56.15;100933.69;5128807;27;20238;-59
2022/06/06 03:37:27;;;;;;;5.87;5.37;;;19.90;75.90;;;22.36;56.05;100932.72;5092895;28;20187;-59
2022/06/06 03:40:06;;;;;;;7.73;7.03;;;19.90;75.70;;;22.31;55.71;100934.53;5086069;28;20536;-58
2022/06/06 03:42:46;;;;;;;8.30;7.50;;;19.90;75.60;;;22.24;56.25;100937.38;5059081;28;20235;-59
2022/06/06 03:45:25;;;;;;;8.77;7.90;;;19.90;75.60;;;22.23;56.37;100938.44;5032428;28;20215;-58
2022/06/06 03:48:07;;;;;;;8.70;7.80;;;19.80;75.70;;;22.16;56.34;100937.78;4932287;28;20693;-60
2022/06/06 03:50:34;;;;;;;9.60;8.60;;;19.80;75.60;;;21.97;56.69;100942.59;4820690;29;20234;-59
2022/06/06 03:56:02;;;;;;;10.27;9.33;;;19.80;75.80;;;22.06;56.51;100959.91;5159257;27;21142;-60
2022/06/06 03:58:32;;;;;;;11.30;10.20;;;19.80;75.60;;;22.19;55.92;100948.03;5094626;28;20211;-59
2022/06/06 04:01:06;;;;;;;13.17;11.87;;;19.70;75.30;;;21.99;56.27;100947.72;5091165;28;20650;-58
2022/06/06 04:03:34;;;;;;;13.13;11.13;;;19.70;75.30;;;22.04;56.10;100947.78;5120905;28;20199;-59
2022/06/06 04:06:04;;;;;;;12.77;11.13;;;19.70;75.20;;;22.12;55.60;100947.38;5103491;28;20216;-59
2022/06/06 04:08:32;;;;;;;14.07;11.90;;;19.70;75.30;;;22.22;55.94;100952.91;5121050;28;20195;-60
2022/06/06 04:11:24;;;;;;;13.53;12.13;;;19.70;75.40;;;22.08;55.72;100955.09;5121415;28;20279;-59
2022/06/06 04:17:07;;;;;;;14.77;12.10;;;19.70;75.50;;;22.15;56.17;100952.28;5171854;27;20931;-60
2022/06/06 04:19:51;;;;;;;15.70;13.23;;;19.70;75.60;;;22.09;56.46;100958.59;5091677;28;20203;-59
2022/06/06 04:22:31;;;;;;;17.97;14.43;;;19.70;75.70;;;22.01;56.50;100950.97;5064739;28;20199;-60
2022/06/06 04:25:16;;;;;;;14.47;12.40;;;19.70;75.70;;;22.02;56.27;100957.94;5085967;28;20597;-59
2022/06/06 04:27:55;;;;;;;19.03;14.23;;;19.70;75.40;;;22.04;56.21;100956.66;4996733;28;20200;-59
2022/06/06 04:30:35;;;;;;;16.73;13.20;;;19.70;75.50;;;22.03;56.07;100968.44;4955647;28;20214;-59
2022/06/06 04:33:17;;;;;;;19.53;13.90;;;19.60;75.30;;;22.12;56.01;100968.84;4831626;29;20201;-60
2022/06/06 04:35:43;;;;;;;17.93;13.87;;;19.60;75.20;;;22.09;55.72;100969.31;4785657;29;20305;-60
2022/06/06 04:38:09;;;;;;;19.13;14.13;;;19.60;75.20;;;22.11;56.02;100980.63;4709616;30;20613;-60
2022/06/06 04:43:20;;;;;;;19.80;13.43;;;19.60;75.20;;;21.72;56.59;100984.22;5172100;27;20392;-58
2022/06/06 04:45:57;;;;;;;17.07;13.53;;;19.50;75.50;;;21.87;56.49;100987.22;5116629;28;20215;-61
2022/06/06 04:48:26;;;;;;;15.93;11.87;;;19.60;75.40;;;22.01;56.28;100991.19;5082721;28;20187;-58
2022/06/06 04:50:58;;;;;;;20.73;13.97;;;19.60;75.50;;;22.05;56.04;100993.16;5082492;28;20699;-58
2022/06/06 04:53:29;;;;;;;20.07;15.47;;;19.60;75.60;;;21.92;56.32;100992.63;5033043;28;20190;-58
2022/06/06 04:55:58;;;;;;;23.90;16.27;;;19.50;75.90;;;21.83;56.53;100994.06;4929682;29;20234;-57
2022/06/06 04:58:31;;;;;;;23.27;16.60;;;19.50;76.10;;;21.80;56.76;101007.97;4881309;29;20196;-59
2022/06/06 05:01:28;;;;;;;22.50;17.40;;;19.50;75.90;;;21.74;56.89;101004.38;4791539;29;20217;-60
2022/06/06 05:03:54;;;;;;;24.83;18.50;;;19.50;76.00;;;21.79;56.30;101009.00;4534036;31;20659;-57
2022/06/06 05:09:25;;;;;;;27.20;17.27;;;19.50;76.60;;;21.72;55.93;101011.03;5171865;27;20391;-59
2022/06/06 05:12:14;;;;;;;20.27;15.30;;;19.40;75.60;;;21.80;55.92;101016.00;5079568;28;20208;-61
2022/06/06 05:15:13;;;;;;;23.97;16.50;;;19.30;75.30;;;21.71;55.89;101017.44;5066238;28;20248;-59
2022/06/06 05:18:07;;;;;;;21.47;15.53;;;19.30;75.50;;;21.64;56.23;101024.81;5016492;28;20278;-59
2022/06/06 05:21:02;;;;;;;24.77;18.40;;;19.30;75.50;;;21.54;56.61;101026.25;4938166;29;20194;-61
2022/06/06 05:24:11;;;;;;;23.07;15.73;;;19.20;75.90;;;21.49;56.52;101028.81;4889204;29;20266;-62
2022/06/06 05:27:05;;;;;;;18.20;14.43;;;19.20;75.90;;;21.58;56.22;101022.03;4779302;29;20229;-60
2022/06/06 05:29:39;;;;;;;20.20;16.60;;;19.20;75.80;;;21.64;55.82;101035.53;4656729;30;20302;-60
2022/06/06 05:34:56;;;;;;;18.37;14.80;;;19.20;75.50;;;21.42;55.34;101046.09;5167117;27;20647;-59
2022/06/06 05:37:45;;;;;;;17.80;13.63;;;19.10;74.50;;;21.36;55.53;101045.19;5109421;28;20641;-59
2022/06/06 05:40:24;;;;;;;17.17;14.93;;;19.10;74.60;;;21.40;55.80;101057.03;5076584;28;20197;-61
2022/06/06 05:43:24;;;;;;;18.47;14.37;;;19.00;74.60;;;21.45;55.64;101053.66;5063196;28;20194;-58
2022/06/06 05:46:14;;;;;;;18.00;14.53;;;19.10;74.70;;;21.48;55.07;101054.00;4923188;28;20228;-60
2022/06/06 05:49:16;;;;;;;17.00;14.33;;;19.00;74.10;;;21.49;54.67;101060.16;4849949;29;20278;-60
2022/06/06 05:55:02;;;;;;;18.47;13.57;;;19.00;73.60;;;21.45;54.28;101064.38;5167636;27;21142;-58
2022/06/06 05:58:13;;;;;;;12.60;11.30;;;19.00;73.20;;;21.55;54.27;101054.69;5107425;28;20199;-58
2022/06/06 06:01:07;;;;;;;13.17;10.73;;;19.10;72.90;;;21.71;54.04;101057.63;5099022;28;20202;-59
2022/06/06 06:04:23;;;;;;;13.57;10.67;;;19.10;72.90;;;21.78;53.66;101064.47;5073260;28;20204;-60
2022/06/06 06:07:02;;;;;;;12.50;11.17;;;19.10;72.60;;;21.83;53.23;101064.56;4900915;29;20305;-59
2022/06/06 06:09:55;;;;;;;11.20;10.03;;;19.10;72.00;;;21.84;52.72;101070.75;4882587;29;20608;-58
2022/06/06 06:13:46;;;;;;;13.47;11.03;;;19.20;71.90;;;21.80;53.22;101072.28;4707083;30;20213;-59
2022/06/06 06:16:12;;;;;;;11.10;10.00;;;19.30;71.70;;;21.94;52.86;101084.38;4546922;31;20315;-61
2022/06/06 06:21:23;;;;;;;13.90;11.23;;;19.30;71.20;;;21.92;51.90;101081.09;5171827;27;20633;-58
2022/06/06 06:24:01;;;;;;;10.67;9.57;;;19.30;70.60;;;21.80;52.26;101091.06;5132315;27;20198;-58
2022/06/06 06:26:34;;;;;;;10.93;9.83;;;19.30;70.60;;;21.88;52.53;101098.72;5130724;27;20677;-59
2022/06/06 06:29:06;;;;;;;10.90;8.83;;;19.40;70.60;;;21.88;51.77;101096.03;5086010;28;20193;-58
2022/06/06 06:31:56;;;;;;;10.10;9.10;;;19.40;70.20;;;21.86;52.16;101103.53;5050771;28;20198;-58
2022/06/06 06:34:37;;;;;;;9.70;8.70;;;19.40;70.10;;;21.84;52.06;101095.72;4919285;28;20674;-59
2022/06/06 06:37:27;;;;;;;9.97;8.10;;;19.40;70.10;;;21.81;51.79;101106.88;4768256;30;20251;-59
2022/06/06 06:39:57;;;;;;;11.47;8.17;;;19.40;70.00;;;21.88;52.03;101104.09;4637186;30;20327;-60
2022/06/06 06:42:23;;;;;;;8.13;7.27;;;19.40;69.60;;;21.88;51.38;101112.94;4528384;31;20728;-59
2022/06/06 06:47:33;;;;;;;7.57;6.87;;;19.40;69.10;;;21.99;50.85;101124.66;5171965;27;20633;-58
2022/06/06 06:50:11;;;;;;;7.30;6.60;;;19.40;68.50;;;22.03;50.02;101117.78;5132653;27;20684;-59
2022/06/06 06:53:01;;;;;;;6.83;6.13;;;19.40;68.40;;;22.04;50.95;101122.06;5148955;27;20226;-60
2022/06/06 06:55:41;;;;;;;6.17;5.40;;;19.40;68.30;;;22.19;50.18;101125.03;5102211;28;20660;-57
2022/06/06 06:58:46;;;;;;;8.97;6.30;;;19.50;68.50;;;22.17;50.17;101127.16;5054345;28;20224;-56
2022/06/06 07:01:23;;;;;;;8.80;7.00;;;19.50;67.90;;;22.27;49.76;101134.56;4861712;29;20345;-59
2022/06/06 07:12:56;;;;;;;7.27;6.57;;;19.60;66.50;;;22.58;48.85;101137.50;5171832;27;21168;-59
2022/06/06 07:15:45;;;;;;;7.63;6.83;;;19.80;66.50;;;22.73;48.30;101132.44;5091545;28;20267;-57
2022/06/06 07:18:16;;;;;;;6.73;6.13;;;19.90;66.20;;;22.88;48.41;101146.09;5062108;28;20199;-58
2022/06/06 07:20:46;;;;;;;7.67;6.87;;;20.00;65.90;;;22.96;47.83;101141.38;5050358;28;20202;-59
2022/06/06 07:23:15;;;;;;;8.77;6.90;;;20.10;65.20;;;23.06;47.78;101150.38;5035494;28;20229;-60
2022/06/06 07:25:45;;;;;;;9.47;7.17;;;20.20;65.20;;;23.14;47.52;101149.16;4953435;28;20220;-61
2022/06/06 07:28:17;;;;;;;8.87;7.70;;;20.20;64.70;;;23.11;47.06;101158.50;4886643;29;20617;-60
2022/06/06 07:30:44;;;;;;;8.20;7.40;;;20.20;64.30;;;23.09;47.20;101146.38;4755153;30;20231;-63
2022/06/06 07:33:10;;;;;;;7.77;6.97;;;20.20;64.10;;;23.04;47.38;101154.38;4641900;30;20279;-60
2022/06/06 07:36:04;;;;;;;8.77;7.53;;;20.30;64.30;;;22.97;47.43;101156.41;5157999;27;20398;-60
2022/06/06 07:38:53;;;;;;;8.43;7.33;;;20.30;64.60;;;22.97;47.72;101149.16;5107495;28;20271;-60
2022/06/06 07:41:29;;;;;;;9.67;8.73;;;20.30;64.80;;;23.00;47.88;101163.97;5058969;28;20190;-59
2022/06/06 07:44:28;;;;;;;9.07;8.17;;;20.20;64.90;;;22.99;48.03;101163.16;5051802;28;20189;-60
2022/06/06 07:47:05;;;;;;;8.87;7.73;;;20.20;65.30;;;23.11;47.94;101160.38;4927565;28;20329;-60
2022/06/06 07:49:51;;;;;;;9.33;8.10;;;20.30;65.60;;;23.23;48.17;101163.78;4893067;29;20610;-60
2022/06/06 07:52:33;;;;;;;8.90;8.00;;;20.30;65.70;;;23.37;47.82;101155.16;4794085;29;20201;-60
2022/06/06 07:54:59;;;;;;;9.50;8.00;;;20.40;65.70;;;23.58;47.52;101161.63;4709701;30;20238;-60
2022/06/06 07:57:25;;;;;;;8.60;7.80;;;20.50;65.60;;;23.79;47.15;101163.50;4671253;30;20208;-60
2022/06/06 08:03:13;;;;;;;9.73;8.67;;;20.70;65.70;;;24.08;46.24;101156.84;5171684;27;20388;-56
2022/06/06 08:06:11;;;;;;;10.13;9.10;;;21.00;64.30;;;23.71;46.49;101163.91;5096844;28;20526;-62
2022/06/06 08:09:13;;;;;;;11.53;9.10;;;21.00;63.10;;;23.66;46.53;101163.84;5042326;28;20911;-61
2022/06/06 08:11:55;;;;;;;9.90;8.30;;;21.00;63.10;;;23.65;47.02;101156.88;4990216;28;20202;-60
2022/06/06 08:14:44;;;;;;;9.10;7.83;;;20.90;63.30;;;23.55;47.12;101146.81;4861107;29;20565;-61
2022/06/06 08:17:31;;;;;;;11.93;8.63;;;20.90;63.50;;;23.50;47.22;101156.66;4802252;29;20571;-61
2022/06/06 08:23:13;;;;;;;9.33;8.23;;;20.80;63.80;;;23.43;47.67;101159.53;5171155;27;20645;-56
2022/06/06 08:25:44;;;;;;;9.53;8.53;;;20.90;64.20;;;23.52;47.53;101162.59;5102368;28;20230;-61
2022/06/06 08:28:12;;;;;;;9.80;8.80;;;20.80;64.30;;;23.57;47.58;101162.69;5073203;28;20193;-61
2022/06/06 08:30:43;;;;;;;11.23;8.57;;;20.80;64.50;;;23.58;47.80;101155.44;5107950;28;20220;-61
2022/06/06 08:33:09;;;;;;;12.00;9.93;;;20.90;64.70;;;23.40;48.18;101159.22;5093013;28;20203;-60
2022/06/06 08:35:54;;;;;;;11.07;9.97;;;20.80;64.80;;;23.22;48.57;101162.16;5113533;28;20343;-59
2022/06/06 08:38:40;;;;;;;11.13;9.43;;;20.80;65.00;;;23.05;49.30;101161.38;5039081;28;20598;-60
2022/06/06 08:45:51;;;;;;;11.77;9.87;;;20.70;66.10;;;22.76;51.25;101177.59;5159240;27;20646;-59
2022/06/06 08:48:48;;;;;;;11.00;9.67;;;20.60;67.70;;;22.74;51.84;101160.09;5112175;28;20194;-59
2022/06/06 08:51:33;;;;;;;12.10;9.63;;;20.50;68.60;;;23.05;51.24;101177.50;5105679;28;20192;-58
2022/06/06 08:54:59;;;;;;;10.37;9.27;;;20.50;68.80;;;23.71;49.38;101163.91;5125278;28;20201;-58
2022/06/06 08:57:49;;;;;;;10.53;9.43;;;20.70;69.60;;;24.15;48.71;101168.22;4955196;28;20300;-62
2022/06/06 09:00:30;;;;;;;11.20;9.33;;;21.00;67.80;;;24.87;47.90;101162.41;4918988;29;20270;-60
2022/06/06 09:03:58;;;;;;;10.17;9.10;;;21.40;67.10;;;25.75;45.45;101160.78;4853559;29;20224;-58
2022/06/06 09:06:51;;;;;;;9.50;8.50;;;21.70;65.10;;;25.89;44.15;101156.50;4561910;31;20280;-60
2022/06/06 09:12:57;;;;;;;11.93;9.47;;;22.20;63.40;;;26.48;42.84;101156.94;5172255;27;20638;-60
2022/06/06 09:16:08;;;;;;;9.80;8.33;;;22.70;61.50;;;27.97;41.54;101156.88;5072271;28;20223;-61
2022/06/06 09:19:41;;;;;;;10.13;9.10;;;23.10;60.90;;;28.90;39.00;101154.06;5069195;28;20200;-60
2022/06/06 09:22:43;;;;;;;9.60;7.90;;;23.90;58.90;;;28.77;38.65;101152.00;4948053;28;20499;-60
2022/06/06 09:25:35;;;;;;;9.27;8.37;;;24.40;57.10;;;28.34;38.64;101150.16;4881776;29;20224;-59
2022/06/06 09:28:58;;;;;;;10.07;8.70;;;24.50;56.30;;;28.24;38.37;101155.66;4654180;30;20220;-60
2022/06/06 09:31:57;;;;;;;10.27;9.37;;;24.60;55.30;;;29.19;35.66;101149.41;4391879;32;20310;-60
2022/06/06 09:37:31;;;;;;;8.93;7.70;;;24.70;53.40;;;31.43;32.67;101169.16;5172014;27;21147;-61
2022/06/06 09:40:19;;;;;;;8.60;7.80;;;25.60;51.20;;;31.64;30.41;101158.63;5127727;28;20199;-61
2022/06/06 09:43:08;;;;;;;8.20;7.23;;;26.10;46.90;;;31.99;28.16;101163.38;5069064;28;20204;-60
2022/06/06 09:45:59;;;;;;;7.60;6.90;;;26.50;44.10;;;32.68;28.27;101147.53;5084203;28;20219;-60
2022/06/06 09:49:17;;;;;;;7.47;6.60;;;27.00;44.30;;;33.32;25.98;101152.38;4989113;28;20201;-60
2022/06/06 09:52:41;;;;;;;8.80;7.93;;;27.50;41.90;;;33.04;26.78;101155.63;4848193;29;20355;-61
2022/06/06 10:01:26;;;;;;;7.60;6.07;;;28.00;40.30;;;33.38;25.89;101164.75;5171623;27;20400;-60
2022/06/06 10:04:41;;;;;;;6.63;5.73;;;28.20;38.60;;;33.89;24.52;101161.38;5109905;28;20204;-60
2022/06/06 10:08:08;;;;;;;5.53;4.97;;;28.40;36.80;;;34.76;23.84;101162.16;5067933;28;20203;-60
2022/06/06 10:11:27;;;;;;;5.53;5.03;;;28.70;35.90;;;36.07;22.10;101154.56;4852932;29;20230;-61
2022/06/06 10:14:24;;;;;;;4.57;4.17;;;29.20;34.30;;;36.27;20.43;101153.78;4795830;29;20747;-61
2022/06/06 10:17:27;;;;;;;4.13;3.83;;;29.60;32.20;;;35.69;21.08;101150.00;4710371;30;20273;-60
2022/06/06 10:20:02;;;;;;;4.10;3.20;;;29.90;31.60;;;34.62;21.27;101160.41;4627708;30;20658;-62
2022/06/06 10:22:33;;;;;;;3.50;3.20;;;29.80;29.90;;;34.17;21.70;101167.34;4633128;30;20324;-61
2022/06/06 10:28:11;;;;;;;4.13;3.83;;;29.50;29.40;;;32.21;23.09;101172.69;5171453;27;20544;-59
2022/06/06 10:31:01;;;;;;;5.13;3.70;;;28.60;31.00;;;31.14;25.32;101186.84;5078626;28;20207;-60
2022/06/06 10:34:08;;;;;;;4.50;4.03;;;28.10;32.50;;;30.40;26.84;101183.19;5069756;28;20199;-60
2022/06/06 10:36:59;;;;;;;4.57;4.17;;;27.50;34.50;;;29.64;28.24;101190.72;5062166;28;20210;-56
2022/06/06 10:40:15;;;;;;;5.67;4.23;;;26.90;36.30;;;29.45;28.87;101179.81;4921409;28;20277;-62
2022/06/06 10:43:19;;;;;;;4.43;4.03;;;26.60;37.80;;;29.09;29.39;101194.81;4794121;29;20291;-59
2022/06/06 10:45:46;;;;;;;5.10;4.70;;;26.30;38.70;;;28.65;29.99;101189.50;4596044;30;20751;-61
2022/06/06 10:51:43;;;;;;;4.47;4.10;;;26.00;39.40;;;28.27;31.32;101190.28;5156410;27;20971;-59
2022/06/06 10:54:59;;;;;;;4.73;4.33;;;25.50;41.40;;;28.40;31.32;101197.78;5106952;27;20525;-60
2022/06/06 10:58:34;;;;;;;5.40;4.17;;;25.50;42.10;;;29.55;30.15;101193.25;5099433;28;20193;-59
2022/06/06 11:01:50;;;;;;;4.10;3.77;;;25.70;41.80;;;29.79;28.19;101194.06;4887004;29;20206;-59
2022/06/06 11:05:07;;;;;;;3.70;3.40;;;26.00;39.00;;;29.68;27.91;101202.59;4837095;29;20212;-60
2022/06/06 11:09:05;;;;;;;4.30;3.17;;;26.20;38.60;;;29.31;28.33;101198.66;4771002;29;20314;-58
2022/06/06 11:14:22;;;;;;;3.50;3.30;;;26.30;38.30;;;29.07;28.23;101208.66;5171128;27;20652;-58
2022/06/06 11:17:45;;;;;;;2.80;2.60;;;26.10;37.30;;;28.84;27.68;101203.97;5104442;28;20282;-60
2022/06/06 11:21:19;;;;;;;4.20;2.60;;;26.00;36.50;;;28.33;29.00;101197.31;4998519;28;20205;-60
2022/06/06 11:23:54;;;;;;;3.10;2.70;;;25.80;37.20;;;28.10;28.98;101223.16;4899014;28;20220;-60
2022/06/06 11:27:18;;;;;;;2.67;2.37;;;25.50;37.60;;;27.50;29.86;101216.06;4822913;29;20230;-59
2022/06/06 11:30:09;;;;;;;3.10;2.90;;;25.30;38.40;;;27.30;30.49;101216.91;4645731;30;20316;-60
2022/06/06 11:32:38;;;;;;;3.37;2.83;;;25.10;39.00;;;27.07;32.32;101219.38;4530362;31;20671;-60
2022/06/06 11:38:37;;;;;;;3.67;3.13;;;24.80;42.30;;;26.00;34.67;101218.34;5171766;27;20634;-59
2022/06/06 11:41:39;;;;;;;3.07;2.73;;;24.10;44.00;;;25.92;35.10;101221.56;5086412;28;20199;-59
2022/06/06 11:44:37;;;;;;;2.50;2.30;;;23.80;45.10;;;26.11;34.52;101200.31;5102361;28;20213;-60
2022/06/06 11:47:44;;;;;;;3.73;2.73;;;23.80;45.00;;;26.02;34.20;101216.19;5021625;28;20275;-60
2022/06/06 11:51:06;;;;;;;4.67;2.63;;;23.70;44.40;;;26.02;33.73;101199.19;4970118;28;20325;-61
2022/06/06 11:54:32;;;;;;;2.23;2.13;;;23.60;43.40;;;26.35;33.20;101208.75;4933552;28;20558;-60
2022/06/06 11:56:59;;;;;;;2.83;2.60;;;23.70;43.10;;;26.48;31.83;101206.34;4704881;30;20272;-58
2022/06/06 12:02:45;;;;;;;3.10;2.20;;;23.70;42.20;;;26.24;32.10;101202.53;5171519;27;20637;-58
2022/06/06 12:05:41;;;;;;;3.93;2.60;;;23.80;42.50;;;26.00;32.11;101195.94;5087492;28;20648;-60
2022/06/06 12:08:48;;;;;;;4.53;2.10;;;23.80;41.40;;;26.08;32.98;101187.31;5093888;28;20201;-61
2022/06/06 12:12:19;;;;;;;2.17;1.80;;;23.90;42.20;;;26.25;32.54;101184.44;5020186;28;20212;-60
2022/06/06 12:15:32;;;;;;;3.33;2.27;;;24.00;41.90;;;26.43;31.77;101183.94;4789645;29;20307;-59
2022/06/06 12:18:44;;;;;;;2.43;2.10;;;24.00;41.10;;;26.52;31.55;101193.94;4538957;31;20269;-60
2022/06/06 12:21:40;;;;;;;1.80;1.70;;;24.10;41.10;;;26.67;32.13;101196.63;4223856;33;20257;-60
2022/06/06 12:27:21;;;;;;;2.67;1.83;;;24.10;41.40;;;26.67;30.65;101183.13;5171716;27;20681;-59
2022/06/06 12:30:21;;;;;;;1.47;1.37;;;24.20;40.20;;;26.48;30.84;101182.03;5095317;28;20200;-62
2022/06/06 12:33:03;;;;;;;2.27;1.30;;;24.20;40.10;;;26.41;31.18;101180.69;5076893;28;20224;-63
2022/06/06 12:35:47;;;;;;;1.60;1.50;;;24.10;40.10;;;26.60;31.75;101179.88;5056211;28;20278;-58
2022/06/06 12:38:30;;;;;;;1.60;1.50;;;24.10;40.40;;;26.86;30.67;101178.03;4891844;29;20227;-58
2022/06/06 12:41:17;;;;;;;1.33;1.23;;;24.20;40.00;;;26.88;30.68;101185.88;4754364;30;20267;-60
2022/06/06 12:44:38;;;;;;;1.83;1.33;;;24.20;39.10;;;27.04;29.95;101182.88;4600322;31;20652;-58
2022/06/06 12:47:12;;;;;;;5.23;1.77;;;24.30;38.80;;;27.23;29.14;101189.34;4357198;32;20248;-58
2022/06/06 12:52:42;;;;;;;1.70;1.60;;;24.30;38.50;;;27.54;28.79;101171.16;5172027;27;20396;-57
2022/06/06 12:55:33;;;;;;;1.47;1.30;;;24.50;38.20;;;27.51;28.48;101167.09;5120679;28;20635;-58
2022/06/06 12:58:20;;;;;;;1.37;1.30;;;24.70;37.10;;;27.49;28.79;101173.88;5043247;28;20337;-60
2022/06/06 13:04:25;;;;;;;1.20;1.10;;;24.90;36.60;;;27.72;28.44;101170.53;4894047;29;20226;-59
2022/06/06 13:07:10;;;;;;;1.80;1.40;;;24.90;36.70;;;27.96;28.07;101168.78;4782487;29;20273;-61
2022/06/06 13:09:49;;;;;;;1.30;1.20;;;25.10;36.30;;;27.91;27.76;101174.22;4717408;30;20207;-58